Stacy, Minnesota
Current Conditions -  °F | °C
As of 6:15 PM on Saturday 20 Dec 2014 (Local Time) from KOEO Reporting Station
Overcast Overcast  
Wind Chill: 23°   Ceiling: 1600
Heat Index: 32°   Visibility: 7mi
Dew Point: 31°   Wind: 10mph
Humidity: 99%   Direction: 150°SSE
Pressure: 30.15"   Gusts: NA
Location:  45.4°N, 92.99°W
Report Text: KOEO 210015Z AUTO 15009KT 7SM OVC016 00/00 A3015 RMK AO2 T10011003
Loading
Personal Weather Stations






























Interactive Weather Map New forecast layout! Learn more

10-Day Weather Forecast

Advertisements
Track Severe Weather on mobile